sensor_id;sensor_type;location;lat;lon;timestamp;P1;durP1;ratioP1;P2;durP2;ratioP2
64157;SDS011;50449;51.528;5.076;2023-04-30T00:01:03;32.50;;;30.63;;
64157;SDS011;50449;51.528;5.076;2023-04-30T00:03:29;32.83;;;30.67;;
64157;SDS011;50449;51.528;5.076;2023-04-30T00:05:54;31.60;;;29.75;;
64157;SDS011;50449;51.528;5.076;2023-04-30T00:08:20;32.25;;;30.35;;
64157;SDS011;50449;51.528;5.076;2023-04-30T00:10:45;32.28;;;30.17;;
64157;SDS011;50449;51.528;5.076;2023-04-30T00:13:11;34.63;;;32.63;;
64157;SDS011;50449;51.528;5.076;2023-04-30T00:15:38;32.08;;;30.17;;
64157;SDS011;50449;51.528;5.076;2023-04-30T00:18:03;33.88;;;31.77;;
64157;SDS011;50449;51.528;5.076;2023-04-30T00:20:31;34.70;;;32.33;;
64157;SDS011;50449;51.528;5.076;2023-04-30T00:22:56;31.55;;;29.85;;
64157;SDS011;50449;51.528;5.076;2023-04-30T00:25:22;36.17;;;34.00;;
64157;SDS011;50449;51.528;5.076;2023-04-30T00:27:48;32.92;;;30.83;;
64157;SDS011;50449;51.528;5.076;2023-04-30T00:30:14;33.13;;;31.00;;
64157;SDS011;50449;51.528;5.076;2023-04-30T00:32:39;33.13;;;30.65;;
64157;SDS011;50449;51.528;5.076;2023-04-30T00:35:05;31.67;;;29.77;;
64157;SDS011;50449;51.528;5.076;2023-04-30T00:37:30;32.88;;;30.55;;
64157;SDS011;50449;51.528;5.076;2023-04-30T00:39:56;33.30;;;30.98;;
64157;SDS011;50449;51.528;5.076;2023-04-30T00:42:22;32.35;;;30.25;;
64157;SDS011;50449;51.528;5.076;2023-04-30T00:44:47;30.02;;;28.08;;
64157;SDS011;50449;51.528;5.076;2023-04-30T00:47:12;29.70;;;28.02;;
64157;SDS011;50449;51.528;5.076;2023-04-30T00:49:38;31.05;;;29.27;;
64157;SDS011;50449;51.528;5.076;2023-04-30T00:52:03;31.38;;;29.38;;
64157;SDS011;50449;51.528;5.076;2023-04-30T00:54:29;32.67;;;30.65;;
64157;SDS011;50449;51.528;5.076;2023-04-30T00:56:55;30.48;;;28.48;;
64157;SDS011;50449;51.528;5.076;2023-04-30T00:59:20;33.10;;;30.88;;
64157;SDS011;50449;51.528;5.076;2023-04-30T01:01:46;31.45;;;29.73;;
64157;SDS011;50449;51.528;5.076;2023-04-30T01:04:11;31.63;;;29.73;;
64157;SDS011;50449;51.528;5.076;2023-04-30T01:06:37;30.52;;;28.65;;
64157;SDS011;50449;51.528;5.076;2023-04-30T01:09:03;30.73;;;29.00;;
64157;SDS011;50449;51.528;5.076;2023-04-30T01:14:21;31.50;;;29.70;;
64157;SDS011;50449;51.528;5.076;2023-04-30T01:17:02;30.58;;;28.75;;
64157;SDS011;50449;51.528;5.076;2023-04-30T01:22:34;30.92;;;29.05;;
64157;SDS011;50449;51.528;5.076;2023-04-30T01:25:06;31.77;;;29.77;;
64157;SDS011;50449;51.528;5.076;2023-04-30T01:30:38;30.35;;;28.17;;
64157;SDS011;50449;51.528;5.076;2023-04-30T01:33:08;31.05;;;29.15;;
64157;SDS011;50449;51.528;5.076;2023-04-30T01:38:34;30.33;;;28.50;;
64157;SDS011;50449;51.528;5.076;2023-04-30T01:43:44;29.92;;;28.13;;
64157;SDS011;50449;51.528;5.076;2023-04-30T01:51:35;31.70;;;29.60;;
64157;SDS011;50449;51.528;5.076;2023-04-30T01:54:04;30.48;;;28.58;;
64157;SDS011;50449;51.528;5.076;2023-04-30T01:56:36;31.75;;;29.58;;
64157;SDS011;50449;51.528;5.076;2023-04-30T01:59:08;28.80;;;27.20;;
64157;SDS011;50449;51.528;5.076;2023-04-30T02:01:34;31.17;;;29.25;;
64157;SDS011;50449;51.528;5.076;2023-04-30T02:04:00;30.98;;;29.08;;
64157;SDS011;50449;51.528;5.076;2023-04-30T02:06:25;31.73;;;29.52;;
64157;SDS011;50449;51.528;5.076;2023-04-30T02:08:55;31.25;;;29.17;;
64157;SDS011;50449;51.528;5.076;2023-04-30T02:11:26;30.05;;;28.27;;
64157;SDS011;50449;51.528;5.076;2023-04-30T02:13:52;31.02;;;29.13;;
64157;SDS011;50449;51.528;5.076;2023-04-30T02:16:17;31.88;;;29.75;;
64157;SDS011;50449;51.528;5.076;2023-04-30T02:18:43;29.98;;;28.08;;
64157;SDS011;50449;51.528;5.076;2023-04-30T02:21:09;31.00;;;29.00;;
64157;SDS011;50449;51.528;5.076;2023-04-30T02:23:35;33.10;;;30.98;;
64157;SDS011;50449;51.528;5.076;2023-04-30T02:26:00;30.88;;;28.77;;
64157;SDS011;50449;51.528;5.076;2023-04-30T02:28:27;30.52;;;28.58;;
64157;SDS011;50449;51.528;5.076;2023-04-30T02:30:52;29.65;;;27.60;;
64157;SDS011;50449;51.528;5.076;2023-04-30T02:33:18;30.40;;;28.58;;
64157;SDS011;50449;51.528;5.076;2023-04-30T02:35:43;30.88;;;28.77;;
64157;SDS011;50449;51.528;5.076;2023-04-30T02:38:08;29.10;;;27.17;;
64157;SDS011;50449;51.528;5.076;2023-04-30T02:40:34;31.77;;;29.65;;
64157;SDS011;50449;51.528;5.076;2023-04-30T02:42:59;29.33;;;27.48;;
64157;SDS011;50449;51.528;5.076;2023-04-30T02:45:25;30.00;;;28.08;;
64157;SDS011;50449;51.528;5.076;2023-04-30T02:47:51;29.40;;;27.52;;
64157;SDS011;50449;51.528;5.076;2023-04-30T02:50:16;30.30;;;28.27;;
64157;SDS011;50449;51.528;5.076;2023-04-30T02:52:43;30.40;;;28.30;;
64157;SDS011;50449;51.528;5.076;2023-04-30T02:55:10;28.95;;;27.15;;
64157;SDS011;50449;51.528;5.076;2023-04-30T02:57:36;31.13;;;28.88;;
64157;SDS011;50449;51.528;5.076;2023-04-30T03:00:02;29.30;;;27.42;;
64157;SDS011;50449;51.528;5.076;2023-04-30T03:02:27;29.10;;;27.48;;
64157;SDS011;50449;51.528;5.076;2023-04-30T03:04:53;28.58;;;26.77;;
64157;SDS011;50449;51.528;5.076;2023-04-30T03:07:19;28.92;;;27.02;;
64157;SDS011;50449;51.528;5.076;2023-04-30T03:09:44;31.50;;;29.27;;
64157;SDS011;50449;51.528;5.076;2023-04-30T03:12:10;29.90;;;28.10;;
64157;SDS011;50449;51.528;5.076;2023-04-30T03:14:36;29.23;;;27.35;;
64157;SDS011;50449;51.528;5.076;2023-04-30T03:17:01;29.08;;;27.08;;
64157;SDS011;50449;51.528;5.076;2023-04-30T03:19:27;30.17;;;28.30;;
64157;SDS011;50449;51.528;5.076;2023-04-30T03:21:53;29.52;;;27.70;;
64157;SDS011;50449;51.528;5.076;2023-04-30T03:24:19;29.40;;;27.67;;
64157;SDS011;50449;51.528;5.076;2023-04-30T03:26:45;30.73;;;28.60;;
64157;SDS011;50449;51.528;5.076;2023-04-30T03:29:11;28.10;;;26.30;;
64157;SDS011;50449;51.528;5.076;2023-04-30T03:31:36;30.67;;;28.60;;
64157;SDS011;50449;51.528;5.076;2023-04-30T03:34:01;30.35;;;28.17;;
64157;SDS011;50449;51.528;5.076;2023-04-30T03:36:27;29.38;;;27.48;;
64157;SDS011;50449;51.528;5.076;2023-04-30T03:38:52;28.40;;;26.60;;
64157;SDS011;50449;51.528;5.076;2023-04-30T03:41:18;28.30;;;26.58;;
64157;SDS011;50449;51.528;5.076;2023-04-30T03:43:43;29.70;;;27.90;;
64157;SDS011;50449;51.528;5.076;2023-04-30T03:46:09;28.33;;;26.58;;
64157;SDS011;50449;51.528;5.076;2023-04-30T03:48:34;28.92;;;26.98;;
64157;SDS011;50449;51.528;5.076;2023-04-30T03:50:59;28.05;;;26.25;;
64157;SDS011;50449;51.528;5.076;2023-04-30T03:53:25;28.25;;;26.40;;
64157;SDS011;50449;51.528;5.076;2023-04-30T03:55:51;29.20;;;27.20;;
64157;SDS011;50449;51.528;5.076;2023-04-30T03:58:18;27.95;;;26.08;;
64157;SDS011;50449;51.528;5.076;2023-04-30T04:00:43;29.70;;;27.58;;
64157;SDS011;50449;51.528;5.076;2023-04-30T04:03:10;29.98;;;27.55;;
64157;SDS011;50449;51.528;5.076;2023-04-30T04:05:36;28.35;;;26.70;;
64157;SDS011;50449;51.528;5.076;2023-04-30T04:08:01;28.63;;;26.83;;
64157;SDS011;50449;51.528;5.076;2023-04-30T04:10:27;28.83;;;26.95;;
64157;SDS011;50449;51.528;5.076;2023-04-30T04:12:52;29.38;;;27.40;;
64157;SDS011;50449;51.528;5.076;2023-04-30T04:15:18;29.95;;;28.13;;
64157;SDS011;50449;51.528;5.076;2023-04-30T04:17:43;30.30;;;28.35;;
64157;SDS011;50449;51.528;5.076;2023-04-30T04:20:09;27.20;;;25.45;;
64157;SDS011;50449;51.528;5.076;2023-04-30T04:22:35;28.48;;;26.67;;
64157;SDS011;50449;51.528;5.076;2023-04-30T04:25:00;28.05;;;26.40;;
64157;SDS011;50449;51.528;5.076;2023-04-30T04:27:26;26.98;;;25.27;;
64157;SDS011;50449;51.528;5.076;2023-04-30T04:29:51;29.27;;;27.17;;
64157;SDS011;50449;51.528;5.076;2023-04-30T04:32:18;29.77;;;27.80;;
64157;SDS011;50449;51.528;5.076;2023-04-30T04:34:44;29.00;;;26.65;;
64157;SDS011;50449;51.528;5.076;2023-04-30T04:37:09;28.10;;;26.30;;
64157;SDS011;50449;51.528;5.076;2023-04-30T04:39:35;27.10;;;25.50;;
64157;SDS011;50449;51.528;5.076;2023-04-30T04:42:01;28.25;;;26.40;;
64157;SDS011;50449;51.528;5.076;2023-04-30T04:44:27;28.58;;;26.65;;
64157;SDS011;50449;51.528;5.076;2023-04-30T04:46:52;30.23;;;28.02;;
64157;SDS011;50449;51.528;5.076;2023-04-30T04:49:18;28.48;;;26.67;;
64157;SDS011;50449;51.528;5.076;2023-04-30T04:51:43;29.42;;;27.25;;
64157;SDS011;50449;51.528;5.076;2023-04-30T04:54:09;27.33;;;25.42;;
64157;SDS011;50449;51.528;5.076;2023-04-30T04:56:34;28.08;;;26.27;;
64157;SDS011;50449;51.528;5.076;2023-04-30T04:59:00;29.00;;;27.05;;
64157;SDS011;50449;51.528;5.076;2023-04-30T05:01:25;28.98;;;26.70;;
64157;SDS011;50449;51.528;5.076;2023-04-30T05:03:51;28.83;;;26.92;;
64157;SDS011;50449;51.528;5.076;2023-04-30T05:06:17;27.27;;;25.48;;
64157;SDS011;50449;51.528;5.076;2023-04-30T05:08:43;27.63;;;25.83;;
64157;SDS011;50449;51.528;5.076;2023-04-30T05:11:08;27.15;;;25.45;;
64157;SDS011;50449;51.528;5.076;2023-04-30T05:13:34;27.33;;;25.50;;
64157;SDS011;50449;51.528;5.076;2023-04-30T05:15:59;27.27;;;25.45;;
64157;SDS011;50449;51.528;5.076;2023-04-30T05:18:25;27.58;;;25.80;;
64157;SDS011;50449;51.528;5.076;2023-04-30T05:20:50;29.38;;;27.17;;
64157;SDS011;50449;51.528;5.076;2023-04-30T05:23:16;26.88;;;25.17;;
64157;SDS011;50449;51.528;5.076;2023-04-30T05:25:41;27.13;;;25.13;;
64157;SDS011;50449;51.528;5.076;2023-04-30T05:28:07;29.13;;;26.65;;
64157;SDS011;50449;51.528;5.076;2023-04-30T05:30:32;27.83;;;25.83;;
64157;SDS011;50449;51.528;5.076;2023-04-30T05:32:58;29.55;;;27.42;;
64157;SDS011;50449;51.528;5.076;2023-04-30T05:35:23;29.45;;;27.50;;
64157;SDS011;50449;51.528;5.076;2023-04-30T05:37:49;28.20;;;26.13;;
64157;SDS011;50449;51.528;5.076;2023-04-30T05:40:14;27.40;;;25.63;;
64157;SDS011;50449;51.528;5.076;2023-04-30T05:42:40;27.60;;;25.95;;
64157;SDS011;50449;51.528;5.076;2023-04-30T05:45:07;27.88;;;25.95;;
64157;SDS011;50449;51.528;5.076;2023-04-30T05:47:33;26.33;;;24.75;;
64157;SDS011;50449;51.528;5.076;2023-04-30T05:49:59;28.98;;;26.98;;
64157;SDS011;50449;51.528;5.076;2023-04-30T05:52:24;28.20;;;26.33;;
64157;SDS011;50449;51.528;5.076;2023-04-30T05:54:50;28.98;;;27.17;;
64157;SDS011;50449;51.528;5.076;2023-04-30T05:57:15;28.27;;;26.30;;
64157;SDS011;50449;51.528;5.076;2023-04-30T05:59:41;28.55;;;26.65;;
64157;SDS011;50449;51.528;5.076;2023-04-30T06:02:06;29.35;;;27.33;;
64157;SDS011;50449;51.528;5.076;2023-04-30T06:04:32;27.70;;;25.58;;
64157;SDS011;50449;51.528;5.076;2023-04-30T06:06:58;27.65;;;25.75;;
64157;SDS011;50449;51.528;5.076;2023-04-30T06:09:23;27.30;;;25.10;;
64157;SDS011;50449;51.528;5.076;2023-04-30T06:11:48;29.30;;;27.33;;
64157;SDS011;50449;51.528;5.076;2023-04-30T06:14:16;27.23;;;25.23;;
64157;SDS011;50449;51.528;5.076;2023-04-30T06:16:42;26.33;;;24.63;;
64157;SDS011;50449;51.528;5.076;2023-04-30T06:19:09;25.92;;;24.25;;
64157;SDS011;50449;51.528;5.076;2023-04-30T06:21:34;27.50;;;25.60;;
64157;SDS011;50449;51.528;5.076;2023-04-30T06:24:00;27.73;;;25.83;;
64157;SDS011;50449;51.528;5.076;2023-04-30T06:26:25;27.65;;;25.85;;
64157;SDS011;50449;51.528;5.076;2023-04-30T06:28:51;29.33;;;26.95;;
64157;SDS011;50449;51.528;5.076;2023-04-30T06:31:16;27.63;;;25.30;;
64157;SDS011;50449;51.528;5.076;2023-04-30T06:33:42;27.55;;;25.50;;
64157;SDS011;50449;51.528;5.076;2023-04-30T06:36:07;25.35;;;23.75;;
64157;SDS011;50449;51.528;5.076;2023-04-30T06:38:33;26.13;;;24.48;;
64157;SDS011;50449;51.528;5.076;2023-04-30T06:40:58;26.77;;;24.98;;
64157;SDS011;50449;51.528;5.076;2023-04-30T06:43:23;29.50;;;26.90;;
64157;SDS011;50449;51.528;5.076;2023-04-30T06:45:49;27.30;;;25.58;;
64157;SDS011;50449;51.528;5.076;2023-04-30T06:48:14;28.40;;;26.23;;
64157;SDS011;50449;51.528;5.076;2023-04-30T06:50:40;27.98;;;25.75;;
64157;SDS011;50449;51.528;5.076;2023-04-30T06:53:12;23.77;;;22.50;;
64157;SDS011;50449;51.528;5.076;2023-04-30T06:55:38;30.35;;;28.13;;
64157;SDS011;50449;51.528;5.076;2023-04-30T06:58:05;28.35;;;26.52;;
64157;SDS011;50449;51.528;5.076;2023-04-30T07:00:30;28.50;;;26.58;;
64157;SDS011;50449;51.528;5.076;2023-04-30T07:02:56;31.23;;;29.15;;
64157;SDS011;50449;51.528;5.076;2023-04-30T07:05:24;29.47;;;27.13;;
64157;SDS011;50449;51.528;5.076;2023-04-30T07:07:50;29.13;;;27.10;;
64157;SDS011;50449;51.528;5.076;2023-04-30T07:10:16;29.23;;;27.08;;
64157;SDS011;50449;51.528;5.076;2023-04-30T07:12:42;29.05;;;27.00;;
64157;SDS011;50449;51.528;5.076;2023-04-30T07:15:08;31.90;;;29.38;;
64157;SDS011;50449;51.528;5.076;2023-04-30T07:17:33;28.35;;;26.45;;
64157;SDS011;50449;51.528;5.076;2023-04-30T07:19:59;31.08;;;28.77;;
64157;SDS011;50449;51.528;5.076;2023-04-30T07:22:24;26.92;;;25.02;;
64157;SDS011;50449;51.528;5.076;2023-04-30T07:24:50;28.80;;;26.80;;
64157;SDS011;50449;51.528;5.076;2023-04-30T07:27:15;29.83;;;27.38;;
64157;SDS011;50449;51.528;5.076;2023-04-30T07:29:40;28.25;;;26.00;;
64157;SDS011;50449;51.528;5.076;2023-04-30T07:32:06;29.45;;;27.30;;
64157;SDS011;50449;51.528;5.076;2023-04-30T07:34:31;30.42;;;28.23;;
64157;SDS011;50449;51.528;5.076;2023-04-30T07:36:57;28.63;;;26.67;;
64157;SDS011;50449;51.528;5.076;2023-04-30T07:39:22;27.67;;;25.80;;
64157;SDS011;50449;51.528;5.076;2023-04-30T07:41:47;30.40;;;28.30;;
64157;SDS011;50449;51.528;5.076;2023-04-30T07:44:13;33.28;;;30.70;;
64157;SDS011;50449;51.528;5.076;2023-04-30T07:46:38;31.90;;;29.50;;
64157;SDS011;50449;51.528;5.076;2023-04-30T07:49:04;30.02;;;27.98;;
64157;SDS011;50449;51.528;5.076;2023-04-30T07:51:29;31.75;;;29.55;;
64157;SDS011;50449;51.528;5.076;2023-04-30T07:53:56;29.35;;;27.48;;
64157;SDS011;50449;51.528;5.076;2023-04-30T07:56:22;30.20;;;28.05;;
64157;SDS011;50449;51.528;5.076;2023-04-30T07:58:47;27.55;;;25.90;;
64157;SDS011;50449;51.528;5.076;2023-04-30T08:01:13;29.63;;;27.73;;
64157;SDS011;50449;51.528;5.076;2023-04-30T08:03:39;30.55;;;28.75;;
64157;SDS011;50449;51.528;5.076;2023-04-30T08:06:05;31.35;;;29.23;;
64157;SDS011;50449;51.528;5.076;2023-04-30T08:08:31;30.58;;;28.52;;
64157;SDS011;50449;51.528;5.076;2023-04-30T08:10:57;31.90;;;29.77;;
64157;SDS011;50449;51.528;5.076;2023-04-30T08:13:22;29.83;;;27.83;;
64157;SDS011;50449;51.528;5.076;2023-04-30T08:15:47;31.50;;;29.45;;
64157;SDS011;50449;51.528;5.076;2023-04-30T08:18:13;32.58;;;30.40;;
64157;SDS011;50449;51.528;5.076;2023-04-30T08:20:38;31.98;;;29.75;;
64157;SDS011;50449;51.528;5.076;2023-04-30T08:23:04;31.17;;;29.13;;
64157;SDS011;50449;51.528;5.076;2023-04-30T08:25:30;34.03;;;31.83;;
64157;SDS011;50449;51.528;5.076;2023-04-30T08:27:55;31.38;;;29.27;;
64157;SDS011;50449;51.528;5.076;2023-04-30T08:30:21;31.95;;;29.75;;
64157;SDS011;50449;51.528;5.076;2023-04-30T08:32:47;31.70;;;29.50;;
64157;SDS011;50449;51.528;5.076;2023-04-30T08:35:13;33.00;;;30.58;;
64157;SDS011;50449;51.528;5.076;2023-04-30T08:37:40;32.88;;;30.58;;
64157;SDS011;50449;51.528;5.076;2023-04-30T08:40:07;33.75;;;31.23;;
64157;SDS011;50449;51.528;5.076;2023-04-30T08:42:35;33.33;;;31.10;;
64157;SDS011;50449;51.528;5.076;2023-04-30T08:45:01;32.03;;;29.90;;
64157;SDS011;50449;51.528;5.076;2023-04-30T08:47:27;32.53;;;30.48;;
64157;SDS011;50449;51.528;5.076;2023-04-30T08:49:53;34.45;;;32.25;;
64157;SDS011;50449;51.528;5.076;2023-04-30T08:52:19;33.72;;;31.58;;
64157;SDS011;50449;51.528;5.076;2023-04-30T08:54:46;33.97;;;31.73;;
64157;SDS011;50449;51.528;5.076;2023-04-30T08:57:12;35.35;;;33.08;;
64157;SDS011;50449;51.528;5.076;2023-04-30T08:59:38;35.85;;;33.55;;
64157;SDS011;50449;51.528;5.076;2023-04-30T09:02:03;33.97;;;31.90;;
64157;SDS011;50449;51.528;5.076;2023-04-30T09:04:29;35.22;;;32.75;;
64157;SDS011;50449;51.528;5.076;2023-04-30T09:06:54;34.17;;;32.13;;
64157;SDS011;50449;51.528;5.076;2023-04-30T09:09:36;36.08;;;33.70;;
64157;SDS011;50449;51.528;5.076;2023-04-30T09:14:38;34.03;;;31.98;;
64157;SDS011;50449;51.528;5.076;2023-04-30T09:17:05;35.05;;;32.75;;
64157;SDS011;50449;51.528;5.076;2023-04-30T09:19:32;36.25;;;33.95;;
64157;SDS011;50449;51.528;5.076;2023-04-30T09:21:58;36.45;;;34.35;;
64157;SDS011;50449;51.528;5.076;2023-04-30T09:24:24;37.58;;;35.28;;
64157;SDS011;50449;51.528;5.076;2023-04-30T09:26:50;36.20;;;33.90;;
64157;SDS011;50449;51.528;5.076;2023-04-30T09:29:15;38.78;;;36.53;;
64157;SDS011;50449;51.528;5.076;2023-04-30T09:31:44;38.10;;;36.00;;
64157;SDS011;50449;51.528;5.076;2023-04-30T09:34:11;37.45;;;35.35;;
64157;SDS011;50449;51.528;5.076;2023-04-30T09:36:36;38.30;;;35.90;;
64157;SDS011;50449;51.528;5.076;2023-04-30T09:39:05;37.50;;;35.38;;
64157;SDS011;50449;51.528;5.076;2023-04-30T09:41:41;39.90;;;37.33;;
64157;SDS011;50449;51.528;5.076;2023-04-30T09:44:07;37.83;;;35.80;;
64157;SDS011;50449;51.528;5.076;2023-04-30T09:46:33;38.33;;;36.15;;
64157;SDS011;50449;51.528;5.076;2023-04-30T09:51:28;41.85;;;39.45;;
64157;SDS011;50449;51.528;5.076;2023-04-30T09:53:54;39.05;;;36.83;;
64157;SDS011;50449;51.528;5.076;2023-04-30T09:56:21;39.78;;;37.50;;
64157;SDS011;50449;51.528;5.076;2023-04-30T09:58:55;39.10;;;36.80;;
64157;SDS011;50449;51.528;5.076;2023-04-30T10:01:22;39.72;;;37.42;;
64157;SDS011;50449;51.528;5.076;2023-04-30T10:03:52;41.20;;;39.00;;
64157;SDS011;50449;51.528;5.076;2023-04-30T10:06:21;42.83;;;40.10;;
64157;SDS011;50449;51.528;5.076;2023-04-30T10:11:19;38.28;;;36.13;;
64157;SDS011;50449;51.528;5.076;2023-04-30T10:21:49;41.40;;;38.80;;
64157;SDS011;50449;51.528;5.076;2023-04-30T10:24:16;42.70;;;40.40;;
64157;SDS011;50449;51.528;5.076;2023-04-30T10:26:43;44.58;;;42.25;;
64157;SDS011;50449;51.528;5.076;2023-04-30T10:29:09;41.65;;;39.30;;
64157;SDS011;50449;51.528;5.076;2023-04-30T10:31:41;40.67;;;38.38;;
64157;SDS011;50449;51.528;5.076;2023-04-30T10:34:27;42.88;;;40.58;;
64157;SDS011;50449;51.528;5.076;2023-04-30T10:37:28;43.63;;;41.13;;
64157;SDS011;50449;51.528;5.076;2023-04-30T10:39:57;42.38;;;40.08;;
64157;SDS011;50449;51.528;5.076;2023-04-30T10:42:23;46.97;;;44.28;;
64157;SDS011;50449;51.528;5.076;2023-04-30T10:44:48;43.38;;;40.92;;
64157;SDS011;50449;51.528;5.076;2023-04-30T10:47:14;44.20;;;41.90;;
64157;SDS011;50449;51.528;5.076;2023-04-30T10:49:44;45.25;;;42.80;;
64157;SDS011;50449;51.528;5.076;2023-04-30T10:52:12;43.25;;;41.00;;
64157;SDS011;50449;51.528;5.076;2023-04-30T10:54:37;46.22;;;43.45;;
64157;SDS011;50449;51.528;5.076;2023-04-30T10:57:13;44.15;;;41.78;;
64157;SDS011;50449;51.528;5.076;2023-04-30T10:59:50;44.75;;;42.10;;
64157;SDS011;50449;51.528;5.076;2023-04-30T11:02:18;44.92;;;42.40;;
64157;SDS011;50449;51.528;5.076;2023-04-30T11:07:30;46.65;;;44.05;;
64157;SDS011;50449;51.528;5.076;2023-04-30T11:09:56;47.05;;;44.30;;
64157;SDS011;50449;51.528;5.076;2023-04-30T11:12:22;47.03;;;44.55;;
64157;SDS011;50449;51.528;5.076;2023-04-30T11:14:57;45.92;;;43.55;;
64157;SDS011;50449;51.528;5.076;2023-04-30T11:17:30;46.00;;;43.20;;
64157;SDS011;50449;51.528;5.076;2023-04-30T11:19:57;47.35;;;44.65;;
64157;SDS011;50449;51.528;5.076;2023-04-30T11:22:27;47.40;;;44.80;;
64157;SDS011;50449;51.528;5.076;2023-04-30T11:25:08;46.30;;;43.78;;
64157;SDS011;50449;51.528;5.076;2023-04-30T11:27:37;46.17;;;43.60;;
64157;SDS011;50449;51.528;5.076;2023-04-30T11:30:11;45.60;;;43.40;;
64157;SDS011;50449;51.528;5.076;2023-04-30T11:32:42;48.63;;;46.00;;
64157;SDS011;50449;51.528;5.076;2023-04-30T11:35:11;46.83;;;44.33;;
64157;SDS011;50449;51.528;5.076;2023-04-30T11:37:38;48.65;;;45.90;;
64157;SDS011;50449;51.528;5.076;2023-04-30T11:40:07;48.95;;;46.53;;
64157;SDS011;50449;51.528;5.076;2023-04-30T11:42:35;46.70;;;44.20;;
64157;SDS011;50449;51.528;5.076;2023-04-30T11:45:07;49.20;;;46.50;;
64157;SDS011;50449;51.528;5.076;2023-04-30T11:47:41;50.78;;;47.97;;
64157;SDS011;50449;51.528;5.076;2023-04-30T11:50:11;45.70;;;43.47;;
64157;SDS011;50449;51.528;5.076;2023-04-30T11:52:38;50.03;;;47.33;;
64157;SDS011;50449;51.528;5.076;2023-04-30T11:55:14;47.88;;;45.38;;
64157;SDS011;50449;51.528;5.076;2023-04-30T11:57:42;46.00;;;43.55;;
64157;SDS011;50449;51.528;5.076;2023-04-30T12:02:38;50.60;;;47.80;;
64157;SDS011;50449;51.528;5.076;2023-04-30T12:05:04;49.10;;;46.42;;
64157;SDS011;50449;51.528;5.076;2023-04-30T12:07:36;48.40;;;45.83;;
64157;SDS011;50449;51.528;5.076;2023-04-30T12:10:01;48.25;;;45.65;;
64157;SDS011;50449;51.528;5.076;2023-04-30T12:12:28;48.97;;;46.33;;
64157;SDS011;50449;51.528;5.076;2023-04-30T12:14:54;48.25;;;45.78;;
64157;SDS011;50449;51.528;5.076;2023-04-30T12:17:34;48.55;;;46.05;;
64157;SDS011;50449;51.528;5.076;2023-04-30T12:20:00;48.72;;;46.13;;
64157;SDS011;50449;51.528;5.076;2023-04-30T12:22:25;47.83;;;45.40;;
64157;SDS011;50449;51.528;5.076;2023-04-30T12:24:53;51.05;;;48.35;;
64157;SDS011;50449;51.528;5.076;2023-04-30T12:27:20;49.88;;;47.10;;
64157;SDS011;50449;51.528;5.076;2023-04-30T12:29:46;49.90;;;47.33;;
64157;SDS011;50449;51.528;5.076;2023-04-30T12:32:13;52.53;;;49.63;;
64157;SDS011;50449;51.528;5.076;2023-04-30T12:34:43;51.47;;;48.78;;
64157;SDS011;50449;51.528;5.076;2023-04-30T12:37:08;50.33;;;47.70;;
64157;SDS011;50449;51.528;5.076;2023-04-30T12:39:34;52.20;;;49.40;;
64157;SDS011;50449;51.528;5.076;2023-04-30T12:42:00;52.83;;;50.13;;
64157;SDS011;50449;51.528;5.076;2023-04-30T12:44:27;50.20;;;47.50;;
64157;SDS011;50449;51.528;5.076;2023-04-30T12:46:56;49.70;;;47.10;;
64157;SDS011;50449;51.528;5.076;2023-04-30T12:49:33;50.28;;;47.58;;
64157;SDS011;50449;51.528;5.076;2023-04-30T12:52:03;51.20;;;48.60;;
64157;SDS011;50449;51.528;5.076;2023-04-30T12:54:34;52.60;;;49.90;;
64157;SDS011;50449;51.528;5.076;2023-04-30T12:57:01;50.90;;;48.35;;
64157;SDS011;50449;51.528;5.076;2023-04-30T12:59:28;51.58;;;49.08;;
64157;SDS011;50449;51.528;5.076;2023-04-30T13:01:54;51.10;;;48.40;;
64157;SDS011;50449;51.528;5.076;2023-04-30T13:04:20;52.70;;;50.00;;
64157;SDS011;50449;51.528;5.076;2023-04-30T13:06:46;55.20;;;52.42;;
64157;SDS011;50449;51.528;5.076;2023-04-30T13:09:11;52.83;;;50.13;;
64157;SDS011;50449;51.528;5.076;2023-04-30T13:11:37;53.10;;;50.30;;
64157;SDS011;50449;51.528;5.076;2023-04-30T13:14:03;52.90;;;50.22;;
64157;SDS011;50449;51.528;5.076;2023-04-30T13:16:28;53.72;;;51.03;;
64157;SDS011;50449;51.528;5.076;2023-04-30T13:18:55;54.83;;;52.13;;
64157;SDS011;50449;51.528;5.076;2023-04-30T13:21:20;52.33;;;49.72;;
64157;SDS011;50449;51.528;5.076;2023-04-30T13:23:46;55.85;;;52.97;;
64157;SDS011;50449;51.528;5.076;2023-04-30T13:26:11;54.13;;;51.50;;
64157;SDS011;50449;51.528;5.076;2023-04-30T13:28:37;55.78;;;52.90;;
64157;SDS011;50449;51.528;5.076;2023-04-30T13:31:02;54.50;;;51.80;;
64157;SDS011;50449;51.528;5.076;2023-04-30T13:33:27;53.50;;;50.83;;
64157;SDS011;50449;51.528;5.076;2023-04-30T13:35:53;55.50;;;52.80;;
64157;SDS011;50449;51.528;5.076;2023-04-30T13:38:18;57.33;;;54.53;;
64157;SDS011;50449;51.528;5.076;2023-04-30T13:40:44;56.80;;;53.95;;
64157;SDS011;50449;51.528;5.076;2023-04-30T13:43:09;55.75;;;52.95;;
64157;SDS011;50449;51.528;5.076;2023-04-30T13:45:35;56.60;;;53.85;;
64157;SDS011;50449;51.528;5.076;2023-04-30T13:48:00;56.90;;;54.05;;
64157;SDS011;50449;51.528;5.076;2023-04-30T13:50:26;53.30;;;50.70;;
64157;SDS011;50449;51.528;5.076;2023-04-30T13:52:51;54.75;;;52.05;;
64157;SDS011;50449;51.528;5.076;2023-04-30T13:55:16;56.38;;;53.58;;
64157;SDS011;50449;51.528;5.076;2023-04-30T13:57:42;56.40;;;53.40;;
64157;SDS011;50449;51.528;5.076;2023-04-30T14:00:07;55.85;;;53.08;;
64157;SDS011;50449;51.528;5.076;2023-04-30T14:02:34;55.22;;;52.58;;
64157;SDS011;50449;51.528;5.076;2023-04-30T14:04:59;56.83;;;54.13;;
64157;SDS011;50449;51.528;5.076;2023-04-30T14:07:27;53.47;;;50.80;;
64157;SDS011;50449;51.528;5.076;2023-04-30T14:09:53;58.65;;;55.75;;
64157;SDS011;50449;51.528;5.076;2023-04-30T14:12:18;57.88;;;55.08;;
64157;SDS011;50449;51.528;5.076;2023-04-30T14:14:45;55.90;;;53.20;;
64157;SDS011;50449;51.528;5.076;2023-04-30T14:17:10;56.05;;;53.42;;
64157;SDS011;50449;51.528;5.076;2023-04-30T14:19:36;56.08;;;53.38;;
64157;SDS011;50449;51.528;5.076;2023-04-30T14:22:01;55.35;;;52.65;;
64157;SDS011;50449;51.528;5.076;2023-04-30T14:24:27;56.10;;;53.38;;
64157;SDS011;50449;51.528;5.076;2023-04-30T14:26:52;60.20;;;57.20;;
64157;SDS011;50449;51.528;5.076;2023-04-30T14:29:18;55.70;;;53.00;;
64157;SDS011;50449;51.528;5.076;2023-04-30T14:31:43;57.75;;;54.75;;
64157;SDS011;50449;51.528;5.076;2023-04-30T14:34:10;57.55;;;54.75;;
64157;SDS011;50449;51.528;5.076;2023-04-30T14:36:36;59.92;;;56.92;;
64157;SDS011;50449;51.528;5.076;2023-04-30T14:39:02;59.63;;;56.63;;
64157;SDS011;50449;51.528;5.076;2023-04-30T14:41:32;58.08;;;55.20;;
64157;SDS011;50449;51.528;5.076;2023-04-30T14:43:58;59.08;;;56.25;;
64157;SDS011;50449;51.528;5.076;2023-04-30T14:46:23;58.15;;;55.40;;
64157;SDS011;50449;51.528;5.076;2023-04-30T14:48:49;63.15;;;60.03;;
64157;SDS011;50449;51.528;5.076;2023-04-30T14:51:14;62.50;;;59.40;;
64157;SDS011;50449;51.528;5.076;2023-04-30T14:53:40;59.47;;;56.63;;
64157;SDS011;50449;51.528;5.076;2023-04-30T14:56:05;58.75;;;55.95;;
64157;SDS011;50449;51.528;5.076;2023-04-30T14:58:31;58.53;;;55.72;;